地図

経路データ

SID SEASON NUMBER BASIN SUBBASIN NAME ISO_TIME NATURE LAT LON WMO_WIND WMO_PRES WMO_AGENCY TRACK_TYPE DIST2LAND LANDFALL IFLAG USA_AGENCY USA_ATCF_ID USA_LAT USA_LON USA_RECORD USA_STATUS USA_WIND USA_PRES USA_SSHS USA_R34_NE USA_R34_SE USA_R34_SW USA_R34_NW USA_R50_NE USA_R50_SE USA_R50_SW USA_R50_NW USA_R64_NE USA_R64_SE USA_R64_SW USA_R64_NW USA_POCI USA_ROCI USA_RMW USA_EYE TOKYO_LAT TOKYO_LON TOKYO_GRADE TOKYO_WIND TOKYO_PRES TOKYO_R50_DIR TOKYO_R50_LONG TOKYO_R50_SHORT TOKYO_R30_DIR TOKYO_R30_LONG TOKYO_R30_SHORT TOKYO_LAND CMA_LAT CMA_LON CMA_CAT CMA_WIND CMA_PRES HKO_LAT HKO_LON HKO_CAT HKO_WIND HKO_PRES NEWDELHI_LAT NEWDELHI_LON NEWDELHI_GRADE NEWDELHI_WIND NEWDELHI_PRES NEWDELHI_CI NEWDELHI_DP NEWDELHI_POCI REUNION_LAT REUNION_LON REUNION_TYPE REUNION_WIND REUNION_PRES REUNION_TNUM REUNION_CI REUNION_RMW REUNION_R34_NE REUNION_R34_SE REUNION_R34_SW REUNION_R34_NW REUNION_R50_NE REUNION_R50_SE REUNION_R50_SW REUNION_R50_NW REUNION_R64_NE REUNION_R64_SE REUNION_R64_SW REUNION_R64_NW BOM_LAT BOM_LON BOM_TYPE BOM_WIND BOM_PRES BOM_TNUM BOM_CI BOM_RMW BOM_R34_NE BOM_R34_SE BOM_R34_SW BOM_R34_NW BOM_R50_NE BOM_R50_SE BOM_R50_SW BOM_R50_NW BOM_R64_NE BOM_R64_SE BOM_R64_SW BOM_R64_NW BOM_ROCI BOM_POCI BOM_EYE BOM_POS_METHOD BOM_PRES_METHOD NADI_LAT NADI_LON NADI_CAT NADI_WIND NADI_PRES WELLINGTON_LAT WELLINGTON_LON WELLINGTON_WIND WELLINGTON_PRES DS824_LAT DS824_LON DS824_STAGE DS824_WIND DS824_PRES TD9636_LAT TD9636_LON TD9636_STAGE TD9636_WIND TD9636_PRES TD9635_LAT TD9635_LON TD9635_WIND TD9635_PRES TD9635_ROCI NEUMANN_LAT NEUMANN_LON NEUMANN_CLASS NEUMANN_WIND NEUMANN_PRES MLC_LAT MLC_LON MLC_CLASS MLC_WIND MLC_PRES USA_GUST BOM_GUST BOM_GUST_PER REUNION_GUST REUNION_GUST_PER USA_SEAHGT USA_SEARAD_NE USA_SEARAD_SE USA_SEARAD_SW USA_SEARAD_NW STORM_SPEED STORM_DIR
1922180N06143 1922 33 WP MM NOT_NAMED 1922-06-29 10:00:00 NR 5.70000 142.700 main 942 942 __________O___ -1 5.70000 142.700 7 1 330
1922180N06143 1922 33 WP MM NOT_NAMED 1922-06-29 12:00:00 NR 5.73417 142.695 main 942 942 __________P___ -1 5.73417 142.695 7 1 339
1922180N06143 1922 33 WP MM NOT_NAMED 1922-06-29 15:00:00 NR 5.79761 142.664 main 953 951 __________P___ -1 5.79761 142.664 7 2 323
1922180N06143 1922 33 WP MM NOT_NAMED 1922-06-29 18:00:00 NR 5.89240 142.574 main 962 960 __________P___ -1 5.89240 142.574 7 4 311
1922180N06143 1922 33 WP MM NOT_NAMED 1922-06-29 21:00:00 NR 6.03732 142.389 main 966 966 __________P___ -1 6.03732 142.389 7 5 307
1922180N06143 1922 33 WP MM NOT_NAMED 1922-06-29 22:00:00 NR 6.10000 142.300 main 971 967 __________O___ -1 6.10000 142.300 7 8 304
1922180N06143 1922 33 WP MM NOT_NAMED 1922-06-30 00:00:00 NR 6.24875 142.077 main 972 974 __________P___ -1 6.24875 142.077 7 9 303
1922180N06143 1922 33 WP MM NOT_NAMED 1922-06-30 03:00:00 NR 6.51608 141.655 main 987 983 __________P___ -1 6.51608 141.655 7 11 302
1922180N06143 1922 33 WP MM NOT_NAMED 1922-06-30 06:00:00 NR 6.81137 141.168 main 998 994 __________P___ -1 6.81137 141.168 7 12 301
1922180N06143 1922 33 WP MM NOT_NAMED 1922-06-30 09:00:00 NR 7.10649 140.664 main 1013 1010 __________P___ -1 7.10649 140.664 7 12 300
1922180N06143 1922 33 WP MM NOT_NAMED 1922-06-30 10:00:00 NR 7.20000 140.500 main 1018 1015 __________O___ -1 7.20000 140.500 7 10 299
1922180N06143 1922 33 WP MM NOT_NAMED 1922-06-30 12:00:00 NR 7.35871 140.206 main 1032 1025 __________P___ -1 7.35871 140.206 7 10 298
1922180N06143 1922 33 WP MM NOT_NAMED 1922-06-30 15:00:00 NR 7.58419 139.770 main 1036 1031 __________P___ -1 7.58419 139.770 7 10 298
1922180N06143 1922 33 WP MM NOT_NAMED 1922-06-30 18:00:00 NR 7.80285 139.345 main 1034 1034 __________P___ -1 7.80285 139.345 7 9 298
1922180N06143 1922 33 WP MM NOT_NAMED 1922-06-30 21:00:00 NR 8.02407 138.934 main 1040 1040 __________P___ -1 8.02407 138.934 7 9 299
1922180N06143 1922 33 WP MM NOT_NAMED 1922-06-30 22:00:00 NR 8.10000 138.800 main 1047 1044 __________O___ -1 8.10000 138.800 7 9 301
1922180N06143 1922 33 WP MM NOT_NAMED 1922-07-01 00:00:00 NR 8.25551 138.549 main 1058 1055 __________P___ -1 8.25551 138.549 7 9 303
1922180N06143 1922 33 WP MM NOT_NAMED 1922-07-01 03:00:00 NR 8.49507 138.185 main 1070 1067 __________P___ -1 8.49507 138.185 7 9 304
1922180N06143 1922 33 WP MM NOT_NAMED 1922-07-01 06:00:00 NR 8.74505 137.820 main 1081 1089 __________P___ -1 8.74505 137.820 7 9 305
1922180N06143 1922 33 WP MM NOT_NAMED 1922-07-01 09:00:00 NR 9.00860 137.436 main 1105 1105 __________P___ -1 9.00860 137.436 7 9 305
1922180N06143 1922 33 WP MM NOT_NAMED 1922-07-01 10:00:00 NR 9.10000 137.300 main 1114 1112 __________O___ -1 9.10000 137.300 7 10 303
1922180N06143 1922 33 WP MM NOT_NAMED 1922-07-01 12:00:00 NR 9.28330 137.009 main 1131 1109 __________P___ -1 9.28330 137.009 7 11 302
1922180N06143 1922 33 WP MM NOT_NAMED 1922-07-01 15:00:00 NR 9.57077 136.547 main 1109 1071 __________P___ -1 9.57077 136.547 7 11 302
1922180N06143 1922 33 WP MM NOT_NAMED 1922-07-01 18:00:00 NR 9.87324 136.063 main 1073 1025 __________P___ -1 9.87324 136.063 7 12 303
1922180N06143 1922 33 WP MM NOT_NAMED 1922-07-01 21:00:00 NR 10.1908 135.566 main 1028 1010 __________P___ -1 10.1908 135.566 7 12 303
1922180N06143 1922 33 WP MM NOT_NAMED 1922-07-01 22:00:00 NR 10.3000 135.400 main 1010 984 __________O___ -1 10.3000 135.400 7 12 304
1922180N06143 1922 33 WP MM NOT_NAMED 1922-07-02 00:00:00 NR 10.5166 135.067 main 984 937 __________P___ -1 10.5166 135.067 7 12 304
1922180N06143 1922 33 WP MM NOT_NAMED 1922-07-02 03:00:00 NR 10.8541 134.561 main 939 891 __________P___ -1 10.8541 134.561 7 12 305
1922180N06143 1922 33 WP MM NOT_NAMED 1922-07-02 06:00:00 NR 11.2066 134.056 main 893 849 __________P___ -1 11.2066 134.056 7 12 306
1922180N06143 1922 33 WP MM NOT_NAMED 1922-07-02 09:00:00 NR 11.5741 133.561 main 853 832 __________P___ -1 11.5741 133.561 7 12 307
1922180N06143 1922 33 WP MM NOT_NAMED 1922-07-02 10:00:00 NR 11.7000 133.400 main 832 802 __________O___ -1 11.7000 133.400 7 12 308
1922180N06143 1922 33 WP MM NOT_NAMED 1922-07-02 12:00:00 NR 11.9366 133.091 main 802 755 __________P___ -1 11.9366 133.091 7 12 309
1922180N06143 1922 33 WP MM NOT_NAMED 1922-07-02 15:00:00 NR 12.3040 132.639 main 755 722 __________P___ -1 12.3040 132.639 7 12 311
1922180N06143 1922 33 WP MM NOT_NAMED 1922-07-02 18:00:00 NR 12.7001 132.196 main 722 691 __________P___ -1 12.7001 132.196 7 12 314
1922180N06143 1922 33 WP MM NOT_NAMED 1922-07-02 21:00:00 NR 13.1406 131.750 main 691 673 __________P___ -1 13.1406 131.750 7 13 316
1922180N06143 1922 33 WP MM NOT_NAMED 1922-07-02 22:00:00 NR 13.3000 131.600 main 673 648 __________O___ -1 13.3000 131.600 7 14 316
1922180N06143 1922 33 WP MM NOT_NAMED 1922-07-03 00:00:00 NR 13.6304 131.268 main 648 612 __________P___ -1 13.6304 131.268 7 14 317
1922180N06143 1922 33 WP MM NOT_NAMED 1922-07-03 03:00:00 NR 14.1699 130.764 main 616 589 __________P___ -1 14.1699 130.764 7 15 319
1922180N06143 1922 33 WP MM NOT_NAMED 1922-07-03 06:00:00 NR 14.7562 130.276 main 595 582 __________P___ -1 14.7562 130.276 7 15 323
1922180N06143 1922 33 WP MM NOT_NAMED 1922-07-03 09:00:00 NR 15.3831 129.833 main 586 585 __________P___ -1 15.3831 129.833 7 15 327
1922180N06143 1922 33 WP MM NOT_NAMED 1922-07-03 10:00:00 NR 15.6000 129.700 main 592 591 __________O___ -1 15.6000 129.700 7 16 333
1922180N06143 1922 33 WP MM NOT_NAMED 1922-07-03 12:00:00 NR 16.0744 129.458 main 600 590 __________P___ -1 16.0744 129.458 7 16 336
1922180N06143 1922 33 WP MM NOT_NAMED 1922-07-03 15:00:00 NR 16.8188 129.145 main 599 605 __________P___ -1 16.8188 129.145 7 16 340
1922180N06143 1922 33 WP MM NOT_NAMED 1922-07-03 18:00:00 NR 17.5497 128.884 main 628 634 __________P___ -1 17.5497 128.884 7 15 342
1922180N06143 1922 33 WP MM NOT_NAMED 1922-07-03 21:00:00 NR 18.2074 128.665 main 664 662 __________P___ -1 18.2074 128.665 7 13 342
1922180N06143 1922 33 WP MM NOT_NAMED 1922-07-03 22:00:00 NR 18.4000 128.600 main 664 654 __________O___ -1 18.4000 128.600 7 11 339
1922180N06143 1922 33 WP MM NOT_NAMED 1922-07-04 00:00:00 NR 18.7130 128.463 main 654 635 __________P___ -1 18.7130 128.463 7 9 337
1922180N06143 1922 33 WP MM NOT_NAMED 1922-07-04 03:00:00 NR 19.0945 128.289 main 636 620 __________P___ -1 19.0945 128.289 7 8 337
1922180N06143 1922 33 WP MM NOT_NAMED 1922-07-04 06:00:00 NR 19.4091 128.148 main 620 616 __________P___ -1 19.4091 128.148 7 7 338
1922180N06143 1922 33 WP MM NOT_NAMED 1922-07-04 09:00:00 NR 19.7005 128.034 main 616 616 __________P___ -1 19.7005 128.034 7 6 340
1922180N06143 1922 33 WP MM NOT_NAMED 1922-07-04 10:00:00 NR 19.8000 128.000 main 619 614 __________O___ -1 19.8000 128.000 2 7 344
1922180N06143 1922 33 WP MM NOT_NAMED 1922-07-04 12:00:00 NR 20.0411 127.933 main 614 617 __________P___ -1 20.0411 127.933 2 7 347
1922180N06143 1922 33 WP MM NOT_NAMED 1922-07-04 15:00:00 NR 20.4031 127.851 main 628 618 __________P___ -1 20.4031 127.851 2 7 349
1922180N06143 1922 33 WP MM NOT_NAMED 1922-07-04 18:00:00 NR 20.7570 127.783 main 635 630 __________P___ -1 20.7570 127.783 2 7 350
1922180N06143 1922 33 WP MM NOT_NAMED 1922-07-04 21:00:00 NR 21.0934 127.721 main 640 640 __________P___ -1 21.0934 127.721 2 7 350
1922180N06143 1922 33 WP MM NOT_NAMED 1922-07-04 22:00:00 NR 21.2000 127.700 main 645 645 __________O___ -1 21.2000 127.700 2 6 348
1922180N06143 1922 33 WP MM NOT_NAMED 1922-07-05 00:00:00 NR 21.4005 127.645 main 647 647 __________P___ -1 21.4005 127.645 2 6 344
1922180N06143 1922 33 WP MM NOT_NAMED 1922-07-05 03:00:00 NR 21.6822 127.562 main 656 640 __________P___ -1 21.6822 127.562 2 6 345
1922180N06143 1922 33 WP MM NOT_NAMED 1922-07-05 06:00:00 NR 21.9496 127.484 main 640 617 __________P___ -1 21.9496 127.484 2 5 346
1922180N06143 1922 33 WP MM NOT_NAMED 1922-07-05 09:00:00 NR 22.2120 127.418 main 617 612 __________P___ -1 22.2120 127.418 2 5 348
1922180N06143 1922 33 WP MM NOT_NAMED 1922-07-05 10:00:00 NR 22.3000 127.400 main 612 603 __________O___ -1 22.3000 127.400 2 5 352
1922180N06143 1922 33 WP MM NOT_NAMED 1922-07-05 12:00:00 NR 22.4781 127.369 main 603 585 __________P___ -1 22.4781 127.369 2 5 352
1922180N06143 1922 33 WP MM NOT_NAMED 1922-07-05 15:00:00 NR 22.7451 127.336 main 585 574 __________P___ -1 22.7451 127.336 2 5 354
1922180N06143 1922 33 WP MM NOT_NAMED 1922-07-05 18:00:00 NR 23.0175 127.314 main 574 564 __________P___ -1 23.0175 127.314 2 6 356
1922180N06143 1922 33 WP MM NOT_NAMED 1922-07-05 21:00:00 NR 23.3016 127.303 main 564 562 __________P___ -1 23.3016 127.303 2 6 0
1922180N06143 1922 33 WP MM NOT_NAMED 1922-07-05 22:00:00 NR 23.4000 127.300 main 562 557 __________O___ -1 23.4000 127.300 2 6 357
1922180N06143 1922 33 WP MM NOT_NAMED 1922-07-06 00:00:00 NR 23.6000 127.294 main 557 550 __________P___ -1 23.6000 127.294 2 6 358
1922180N06143 1922 33 WP MM NOT_NAMED 1922-07-06 03:00:00 NR 23.9125 127.292 main 550 542 __________P___ -1 23.9125 127.292 2 6 2
1922180N06143 1922 33 WP MM NOT_NAMED 1922-07-06 06:00:00 NR 24.2400 127.294 main 542 536 __________P___ -1 24.2400 127.294 2 7 2
1922180N06143 1922 33 WP MM NOT_NAMED 1922-07-06 09:00:00 NR 24.5825 127.299 main 536 535 __________P___ -1 24.5825 127.299 2 7 0
1922180N06143 1922 33 WP MM NOT_NAMED 1922-07-06 10:00:00 NR 24.7000 127.300 main 535 534 __________O___ -1 24.7000 127.300 2 7 4
1922180N06143 1922 33 WP MM NOT_NAMED 1922-07-06 12:00:00 NR 24.9398 127.302 main 534 533 __________P___ -1 24.9398 127.302 2 7 0
1922180N06143 1922 33 WP MM NOT_NAMED 1922-07-06 15:00:00 NR 25.3096 127.303 main 534 534 __________P___ -1 25.3096 127.303 2 8 2
1922180N06143 1922 33 WP MM NOT_NAMED 1922-07-06 18:00:00 NR 25.6881 127.302 main 537 537 __________P___ -1 25.6881 127.302 2 8 0
1922180N06143 1922 33 WP MM NOT_NAMED 1922-07-06 21:00:00 NR 26.0717 127.301 main 545 545 __________P___ -1 26.0717 127.301 2 8 0
1922180N06143 1922 33 WP MM NOT_NAMED 1922-07-06 22:00:00 NR 26.2000 127.300 main 547 __________O___ -1 26.2000 127.300 4 8 348

デジタル台風データ・検索

IBTrACS Databaseについて

本データベースは、米国NOAAが公開する1842年以降の世界の熱帯低気圧のベストトラックデータアーカイブInternational Best Track Archive for Climate Stewardship (IBTrACS)を、ウェブで閲覧しやすい形式に変換したものです。

最終更新日:2021-12-01